Flight Track Log - Related Links

Times and Time Zones

All times are in EDT time to prevent confusion due to time zone crossing. See the SWA868 flight status page for this flight to view local times or setup timezone preferences in your user account.

Time Position Orientation Groundspeed Altitude Reporting Facility
EDT Latitude Longitude Course Direction KTS MPH feet Rate Location/Type
Sat 03:40:38 PM 38.0756 -85.5464 94° East 295 339 9,100  Level Indianapolis Center
Sat 03:41:39 PM 38.0736 -85.4286 91° East 331 381 11,200 2,878 Climbing Indianapolis Center
Sat 03:42:41 PM 38.0719 -85.2975 91° East 367 422 15,000 3,387 Climbing Indianapolis Center
Sat 03:43:43 PM 38.0542 -85.1572 99° East 397 457 18,200 3,171 Climbing Indianapolis Center
Sat 03:44:00 PM 37.4303 -85.4743 164° South  Level Estimated
Sat 03:44:44 PM 38.0078 -85.0247 114° Southeast 415 478 21,500  Level Indianapolis Center
Sat 03:45:46 PM 37.9439 -84.8969 122° Southeast 426 490 24,300 2,758 Climbing Indianapolis Center
Sat 03:46:48 PM 37.8633 -84.7450 124° Southeast 442 509 27,200 2,371 Climbing Indianapolis Center
Sat 03:47:50 PM 37.7439 -84.6897 160° South 452 520 29,200 1,902 Climbing Indianapolis Center
Sat 03:48:51 PM 37.6236 -84.6333 160° South 457 526 31,100 2,244 Climbing Indianapolis Center
Sat 03:49:53 PM 37.4994 -84.5792 161° South 468 539 33,800 1,902 Climbing Indianapolis Center
Sat 03:50:54 PM 37.3822 -84.5306 162° South 452 520 35,000 1,073 Climbing Indianapolis Center
Sat 03:51:56 PM 37.2675 -84.4794 160° South 441 507 36,000 1,258 Climbing Indianapolis Center
Sat 03:52:58 PM 37.1531 -84.4283 160° South 438 504 37,600 1,415 Climbing Indianapolis Center
Sat 03:53:59 PM 37.0119 -84.4022 172° South 442 509 38,900 1,220 Climbing Indianapolis Center
Sat 03:55:01 PM 36.8933 -84.4036 181° South 431 496 40,100 1,024 Climbing Indianapolis Center
Sat 03:56:02 PM 36.7736 -84.4050 181° South 432 497 41,000 439 Climbing Indianapolis Center
Sat 03:57:04 PM 36.6564 -84.4347 191° South 434 499 41,000  Level Indianapolis Center
Sat 03:58:06 PM 36.5450 -84.4783 197° South 422 486 41,000  Level Indianapolis Center
Sat 03:59:07 PM 36.4236 -84.5206 196° South 427 491 41,000  Level Indianapolis Center
Sat 04:00:09 PM 36.3072 -84.5519 192° South 427 491 41,000  Level Indianapolis Center
Sat 04:01:10 PM 36.1853 -84.5625 184° South 435 501 41,000  Level Indianapolis Center
Sat 04:02:06 PM 36.0592 -84.5575 178° South 432 497 41,000  Level Atlanta Center
Sat 04:03:06 PM 35.9364 -84.5492 177° South 438 504 41,000  Level Atlanta Center
Sat 04:04:06 PM 35.8133 -84.5433 178° South 443 510 41,000  Level Atlanta Center
Sat 04:05:06 PM 35.6903 -84.5400 179° South 443 510 41,000  Level Atlanta Center
Sat 04:06:06 PM 35.5669 -84.5342 178° South 443 510 41,000  Level Atlanta Center
Sat 04:07:06 PM 35.4439 -84.5281 178° South 443 510 41,000  Level Atlanta Center
Sat 04:08:06 PM 35.3231 -84.5225 178° South 443 510 41,000  Level Atlanta Center
Sat 04:09:06 PM 35.2000 -84.5167 178° South 443 510 41,000  Level Atlanta Center
Sat 04:10:06 PM 35.0789 -84.5108 178° South 438 504 41,000  Level Atlanta Center
Sat 04:11:06 PM 34.9581 -84.5050 178° South 438 504 41,000  Level Atlanta Center
Sat 04:12:06 PM 34.8411 -84.4944 176° South 428 493 41,000  Level Atlanta Center
Sat 04:13:06 PM 34.7367 -84.4886 177° South 423 487 41,000  Level Atlanta Center
Sat 04:14:06 PM 34.6178 -84.4856 179° South 423 487 41,000  Level Atlanta Center
Sat 04:15:06 PM 34.4989 -84.4775 177° South 428 493 41,000  Level Atlanta Center
Sat 04:16:06 PM 34.3800 -84.4742 179° South 428 493 41,000  Level Atlanta Center
Sat 04:17:06 PM 34.2631 -84.4661 177° South 423 487 41,000  Level Atlanta Center
Sat 04:18:06 PM 34.1233 -84.4628 179° South 437 503 41,000  Level Atlanta Center
Sat 04:19:06 PM 34.0106 -84.4547 177° South 437 503 41,000  Level Atlanta Center
Sat 04:20:06 PM 33.8875 -84.4517 179° South 437 503 41,000  Level Atlanta Center
Sat 04:21:06 PM 33.7686 -84.4436 177° South 442 509 41,000  Level Atlanta Center
Sat 04:22:06 PM 33.6475 -84.4381 178° South 437 503 41,000  Level Atlanta Center
Sat 04:23:06 PM 33.5369 -84.4350 179° South 443 510 41,000  Level Atlanta Center
Sat 04:24:06 PM 33.4158 -84.4319 179° South 438 504 41,000  Level Atlanta Center
Sat 04:25:06 PM 33.2989 -84.4314 180° South 438 504 41,000  Level Atlanta Center
Sat 04:26:06 PM 33.1758 -84.4311 180° South 438 504 41,000  Level Atlanta Center
Sat 04:27:06 PM 33.0569 -84.4281 179° South 438 504 41,000  Level Atlanta Center
Sat 04:28:06 PM 32.9233 -84.4275 180° South 438 504 41,000  Level Atlanta Center
Sat 04:29:06 PM 32.8000 -84.4244 179° South 438 504 41,000  Level Atlanta Center
Sat 04:30:06 PM 32.6811 -84.4189 178° South 433 498 41,000  Level Atlanta Center
Sat 04:31:06 PM 32.5581 -84.4158 179° South 438 504 41,000  Level Atlanta Center
Sat 04:32:06 PM 32.4369 -84.4131 179° South 443 510 41,000  Level Atlanta Center
Sat 04:33:06 PM 32.3158 -84.4125 180° South 443 510 41,000  Level Atlanta Center
Sat 04:34:06 PM 32.1928 -84.4069 178° South 443 510 41,000  Level Atlanta Center
Sat 04:34:46 PM 32.1219 -84.4061 179° South 454 522 41,000  Level Jacksonville Center
Sat 04:35:46 PM 32.0008 -84.4042 179° South 459 528 41,000  Level Jacksonville Center
Sat 04:36:46 PM 31.8800 -84.4022 179° South 449 517 41,000  Level Jacksonville Center
Sat 04:37:46 PM 31.7589 -84.4025 180° South 437 503 41,000  Level Jacksonville Center
Sat 04:38:46 PM 31.6378 -84.4006 179° South 437 503 41,000  Level Jacksonville Center
Sat 04:39:46 PM 31.5208 -84.3964 178° South 437 503 41,000  Level Jacksonville Center
Sat 04:40:46 PM 31.4061 -84.3919 178° South 425 489 41,000  Level Jacksonville Center
Sat 04:41:46 PM 31.2911 -84.3925 180° South 419 482 41,000  Level Jacksonville Center
Sat 04:42:46 PM 31.1786 -84.3811 175° South 419 482 41,000  Level Jacksonville Center
Sat 04:43:46 PM 31.0769 -84.3117 150° Southeast 405 466 41,000  Level Jacksonville Center
Sat 04:44:46 PM 30.9842 -84.2278 142° Southeast 410 472 41,000 -50 Level Jacksonville Center
Sat 04:45:46 PM 30.8867 -84.1417 143° Southeast 431 496 40,900 -550 Descending Jacksonville Center
Sat 04:46:46 PM 30.7917 -84.0533 141° Southeast 436 502 39,900 -950 Descending Jacksonville Center
Sat 04:47:46 PM 30.6983 -83.9678 142° Southeast 436 502 39,000 -900 Descending Jacksonville Center
Sat 04:48:46 PM 30.6008 -83.8869 144° Southeast 436 502 38,100 -950 Descending Jacksonville Center
Sat 04:49:46 PM 30.4800 -83.8447 163° South 410 472 37,100 -950 Descending Jacksonville Center
Sat 04:50:46 PM 30.3592 -83.8147 168° South 426 490 36,200 -950 Descending Jacksonville Center
Sat 04:51:46 PM 30.2425 -83.7847 167° South 426 490 35,200 -600 Descending Jacksonville Center
Sat 04:52:46 PM 30.1342 -83.7547 167° South 439 505 35,000 -100 Descending Jacksonville Center
Sat 04:53:46 PM 30.0175 -83.7250 168° South 439 505 35,000  Level Jacksonville Center
Sat 04:54:46 PM 29.8986 -83.6928 167° South 439 505 35,000  Level Jacksonville Center
Sat 04:55:46 PM 29.7797 -83.6631 168° South 439 505 35,000 -300 Level Jacksonville Center
Sat 04:56:46 PM 29.6569 -83.6286 166° South 439 505 34,400 -800 Descending Jacksonville Center
Sat 04:57:46 PM 29.5381 -83.5967 167° South 444 511 33,400 -1,300 Descending Jacksonville Center
Sat 04:58:46 PM 29.4150 -83.5647 167° South 449 517 31,800 -2,400 Descending Jacksonville Center
Sat 04:59:46 PM 29.2961 -83.5308 166° South 449 517 28,600 -2,500 Descending Jacksonville Center
Sat 05:00:46 PM 29.1794 -83.4872 162° South 444 511 26,800 -1,450 Descending Jacksonville Center
Sat 05:01:46 PM 29.0733 -83.4178 150° Southeast 439 505 25,700 -1,050 Descending Jacksonville Center
Sat 05:02:46 PM 28.9775 -83.3553 150° Southeast 419 482 24,700 -1,000 Descending Jacksonville Center
Sat 05:03:46 PM 28.8797 -83.2956 152° Southeast 413 475 23,700 -1,550 Descending Jacksonville Center
Sat 05:04:46 PM 28.7861 -83.2336 150° Southeast 400 460 21,600 -2,100 Descending Jacksonville Center
Sat 05:05:46 PM 28.6942 -83.1767 151° Southeast 384 442 19,500 -2,177 Descending Jacksonville Center
Sat 05:06:39 PM 28.6167 -83.1167 146° Southeast 367 422 17,500 -2,283 Descending Tampa TRACON
Sat 05:07:39 PM 28.5167 -83.0667 156° South 357 411 15,200 -1,850 Descending Tampa TRACON
Sat 05:08:39 PM 28.4333 -83.0167 152° Southeast 348 400 13,800 -1,700 Descending Tampa TRACON
Sat 05:09:39 PM 28.3500 -82.9667 152° Southeast 332 382 11,800 -1,800 Descending Tampa TRACON
Sat 05:10:39 PM 28.2667 -82.9167 152° Southeast 324 373 10,200 -1,350 Descending Tampa TRACON
Sat 05:11:39 PM 28.2000 -82.8667 147° Southeast 304 350 9,100 -1,050 Descending Tampa TRACON
Sat 05:12:39 PM 28.1500 -82.7833 124° Southeast 300 345 8,100 -992 Descending Tampa TRACON
Sat 05:13:40 PM 28.1000 -82.7167 130° Southeast 294 338 7,100 -893 Descending Tampa TRACON
Sat 05:14:40 PM 28.0333 -82.6500 139° Southeast 283 326 6,300 -727 Descending Tampa TRACON
Sat 05:15:52 PM 27.9667 -82.6167 156° South 245 282 5,500 -850 Descending Tampa TRACON
Sat 05:16:40 PM 27.9167 -82.6167 180° South 233 268 4,600 -882 Descending Tampa TRACON
Sat 05:17:34 PM 27.8667 -82.6167 180° South 228 262 4,000 -750 Descending Tampa TRACON
Sat 05:18:40 PM 27.8167 -82.6000 164° South 215 247 3,100 -700 Descending Tampa TRACON
Sat 05:19:34 PM 27.8333 -82.5500 69° East 214 246 2,600 -700 Descending Tampa TRACON
Sat 05:20:40 PM 27.8833 -82.5500 360° North 166 191 1,700 -900 Descending Tampa TRACON
Sat 05:21:34 PM 27.9167 -82.5500 360° North 147 169 800 -1,000 Descending Tampa TRACON

Login

Don't have an account? Register now (free) for customized features, flight alerts, and more!